Observation data for Northwest Lubbock on 01/20/2019      Previous  Date  Next       Current Mesonet Observations  Soil Data  Daily Summary Page  Observations in Plain Language
KLBW 200600Z 14006KT 03/M05 A3029 RMK A01 T00261047  RH  059%=      5-min Rain = 0
KLBW 200605Z 14007KT 03/M05 A303 RMK A01 T00261047  RH  059%=      5-min Rain = 0
KLBW 200610Z 14007KT 03/M05 A3029 RMK A01 T00251047  RH  060%=      5-min Rain = 0
KLBW 200615Z 14007KT 02/M05 A3029 RMK A01 T00241046  RH  060%=      5-min Rain = 0
KLBW 200620Z 14006KT 02/M05 A3029 RMK A01 T00221046  RH  061%=      5-min Rain = 0
KLBW 200625Z 14007KT 02/M05 A3029 RMK A01 T00211046  RH  062%=      5-min Rain = 0
KLBW 200630Z 14007KT 02/M05 A3029 RMK A01 T00211045  RH  062%=      5-min Rain = 0
KLBW 200635Z 14007KT 02/M05 A3029 RMK A01 T00201045  RH  062%=      5-min Rain = 0
KLBW 200640Z 14007KT 02/M05 A3029 RMK A01 T00201045  RH  062%=      5-min Rain = 0
KLBW 200645Z 14008KT 02/M05 A3029 RMK A01 T00201045  RH  063%=      5-min Rain = 0
KLBW 200650Z 14008KT 02/M05 A3029 RMK A01 T00201045  RH  063%=      5-min Rain = 0
KLBW 200655Z 15008KT 02/M05 A3029 RMK A01 T00191045  RH  063%=      5-min Rain = 0
KLBW 200700Z 14007KT 02/M05 A3029 RMK A01 T00181045  RH  063%=      5-min Rain = 0
KLBW 200705Z 14007KT 02/M05 A3029 RMK A01 T00161045  RH  064%=      5-min Rain = 0
KLBW 200710Z 14008KT 02/M05 A3028 RMK A01 T00161045  RH  064%=      5-min Rain = 0
KLBW 200715Z 15008KT 01/M05 A3029 RMK A01 T00141045  RH  065%=      5-min Rain = 0
KLBW 200720Z 15008KT 02/M05 A3028 RMK A01 T00151045  RH  065%=      5-min Rain = 0
KLBW 200725Z 15008KT 01/M05 A3028 RMK A01 T00141045  RH  065%=      5-min Rain = 0
KLBW 200730Z 15008KT 01/M05 A3028 RMK A01 T00131046  RH  065%=      5-min Rain = 0
KLBW 200735Z 15008KT 01/M05 A3028 RMK A01 T00121045  RH  066%=      5-min Rain = 0
KLBW 200740Z 14007KT 01/M05 A3028 RMK A01 T00111045  RH  066%=      5-min Rain = 0
KLBW 200745Z 16007KT 01/M05 A3029 RMK A01 T00101046  RH  067%=      5-min Rain = 0
KLBW 200750Z 15008KT 01/M05 A3029 RMK A01 T00101045  RH  067%=      5-min Rain = 0
KLBW 200755Z 16007KT 01/M05 A3028 RMK A01 T00101045  RH  067%=      5-min Rain = 0
KLBW 200800Z 15007KT 01/M05 A3028 RMK A01 T00091046  RH  067%=      5-min Rain = 0
KLBW 200805Z 15008KT 01/M05 A3028 RMK A01 T00091045  RH  068%=      5-min Rain = 0
KLBW 200810Z 14008KT 01/M05 A3028 RMK A01 T00091045  RH  067%=      5-min Rain = 0
KLBW 200815Z 14008KT 01/M05 A3028 RMK A01 T00081045  RH  068%=      5-min Rain = 0
KLBW 200820Z 14007KT 01/M05 A3028 RMK A01 T00071045  RH  068%=      5-min Rain = 0
KLBW 200825Z 14006KT 01/M05 A3028 RMK A01 T00051045  RH  069%=      5-min Rain = 0
KLBW 200830Z 14008KT 00/M05 A3028 RMK A01 T00041045  RH  070%=      5-min Rain = 0
KLBW 200835Z 14007KT 00/M05 A3028 RMK A01 T00041045  RH  070%=      5-min Rain = 0
KLBW 200840Z 14006KT 00/M05 A3028 RMK A01 T00021045  RH  071%=      5-min Rain = 0
KLBW 200845Z 13006KT 00/05 A3028 RMK A01 T00-00-46  RH  072%=      5-min Rain = 0
KLBW 200850Z 14006KT M00/M05 A3028 RMK A01 T10011045  RH  072%=      5-min Rain = 0
KLBW 200855Z 14006KT M00/M05 A3028 RMK A01 T10011045  RH  072%=      5-min Rain = 0
KLBW 200900Z 14005KT M00/M05 A3028 RMK A01 T10011045  RH  073%=      5-min Rain = 0
KLBW 200905Z 13004KT M00/M05 A3028 RMK A01 T10021045  RH  073%=      5-min Rain = 0
KLBW 200910Z 13005KT M00/M05 A3029 RMK A01 T10041046  RH  073%=      5-min Rain = 0
KLBW 200915Z 14006KT M00/M05 A3029 RMK A01 T10041045  RH  074%=      5-min Rain = 0
KLBW 200920Z 13004KT M01/M05 A3029 RMK A01 T10051046  RH  074%=      5-min Rain = 0
KLBW 200925Z 14005KT M01/M05 A3029 RMK A01 T10071047  RH  075%=      5-min Rain = 0
KLBW 200930Z 14005KT M01/M05 A3029 RMK A01 T10071048  RH  074%=      5-min Rain = 0
KLBW 200935Z 14006KT M01/M05 A3029 RMK A01 T10091049  RH  074%=      5-min Rain = 0
KLBW 200940Z 14005KT M01/M05 A3028 RMK A01 T10081049  RH  074%=      5-min Rain = 0
KLBW 200945Z 14005KT M01/M05 A3028 RMK A01 T10101051  RH  074%=      5-min Rain = 0
KLBW 200950Z 14005KT M01/M05 A3028 RMK A01 T10111051  RH  075%=      5-min Rain = 0
KLBW 200955Z 14006KT M01/M05 A3028 RMK A01 T10111053  RH  073%=      5-min Rain = 0
KLBW 201000Z 15008KT M01/M06 A3028 RMK A01 T10101057  RH  070%=      5-min Rain = 0
KLBW 201005Z 15008KT M01/M06 A3028 RMK A01 T10101060  RH  069%=      5-min Rain = 0
KLBW 201010Z 14007KT M01/M06 A3028 RMK A01 T10101062  RH  068%=      5-min Rain = 0
KLBW 201015Z 14007KT M01/M06 A3027 RMK A01 T10111062  RH  069%=      5-min Rain = 0
KLBW 201020Z 14007KT M01/M06 A3027 RMK A01 T10111061  RH  069%=      5-min Rain = 0
KLBW 201025Z 14004KT M01/M06 A3027 RMK A01 T10121060  RH  070%=      5-min Rain = 0
KLBW 201030Z 14004KT M01/M06 A3027 RMK A01 T10141060  RH  071%=      5-min Rain = 0
KLBW 201035Z 14006KT M01/M06 A3027 RMK A01 T10141059  RH  072%=      5-min Rain = 0
KLBW 201040Z 14005KT M01/M06 A3027 RMK A01 T10141058  RH  072%=      5-min Rain = 0
KLBW 201045Z 14006KT M01/M06 A3027 RMK A01 T10141057  RH  073%=      5-min Rain = 0
KLBW 201050Z 13005KT M02/M06 A3027 RMK A01 T10151056  RH  074%=      5-min Rain = 0
KLBW 201055Z 13005KT M02/M06 A3026 RMK A01 T10151055  RH  075%=      5-min Rain = 0
KLBW 201100Z 13005KT M02/M06 A3026 RMK A01 T10161055  RH  075%=      5-min Rain = 0
KLBW 201105Z 13005KT M02/M06 A3026 RMK A01 T10181055  RH  076%=      5-min Rain = 0
KLBW 201110Z 13005KT M02/M06 A3026 RMK A01 T10181055  RH  076%=      5-min Rain = 0
KLBW 201115Z 13005KT M02/M06 A3026 RMK A01 T10191055  RH  077%=      5-min Rain = 0
KLBW 201120Z 14005KT M02/M05 A3026 RMK A01 T10191054  RH  077%=      5-min Rain = 0
KLBW 201125Z 13005KT M02/M05 A3026 RMK A01 T10191054  RH  077%=      5-min Rain = 0
KLBW 201130Z 14005KT M02/M05 A3026 RMK A01 T10201053  RH  078%=      5-min Rain = 0
KLBW 201135Z 13005KT M02/M05 A3025 RMK A01 T10201054  RH  078%=      5-min Rain = 0
KLBW 201140Z 13005KT M02/M05 A3025 RMK A01 T10211054  RH  079%=      5-min Rain = 0
KLBW 201145Z 14005KT M02/M05 A3025 RMK A01 T10211053  RH  079%=      5-min Rain = 0
KLBW 201150Z 14005KT M02/M05 A3025 RMK A01 T10211052  RH  079%=      5-min Rain = 0
KLBW 201155Z 14005KT M02/M05 A3025 RMK A01 T10201051  RH  080%=      5-min Rain = 0
KLBW 201200Z 14006KT M02/M05 A3024 RMK A01 T10191050  RH  080%=      5-min Rain = 0
KLBW 201205Z 15006KT M02/M05 A3024 RMK A01 T10181050  RH  079%=      5-min Rain = 0
KLBW 201210Z 15007KT M02/M05 A3024 RMK A01 T10181051  RH  078%=      5-min Rain = 0
KLBW 201215Z 15007KT M02/M05 A3024 RMK A01 T10161052  RH  077%=      5-min Rain = 0
KLBW 201220Z 15006KT M02/M05 A3024 RMK A01 T10161052  RH  077%=      5-min Rain = 0
KLBW 201225Z 15007KT M02/M05 A3024 RMK A01 T10151053  RH  076%=      5-min Rain = 0
KLBW 201230Z 15008KT M01/M06 A3024 RMK A01 T10141055  RH  074%=      5-min Rain = 0
KLBW 201235Z 15006KT M02/M06 A3024 RMK A01 T10151058  RH  073%=      5-min Rain = 0
KLBW 201240Z 16006KT M01/M06 A3024 RMK A01 T10141058  RH  072%=      5-min Rain = 0
KLBW 201245Z 17005KT M02/M06 A3024 RMK A01 T10161059  RH  073%=      5-min Rain = 0
KLBW 201250Z 16005KT M02/M06 A3024 RMK A01 T10151059  RH  072%=      5-min Rain = 0
KLBW 201255Z 17006KT M01/M06 A3024 RMK A01 T10141059  RH  072%=      5-min Rain = 0
KLBW 201300Z 16006KT M01/M06 A3024 RMK A01 T10141059  RH  071%=      5-min Rain = 0
KLBW 201305Z 16006KT M01/M06 A3024 RMK A01 T10141059  RH  071%=      5-min Rain = 0
KLBW 201310Z 16005KT M02/M06 A3024 RMK A01 T10151060  RH  072%=      5-min Rain = 0
KLBW 201315Z 17006KT M02/M06 A3024 RMK A01 T10161060  RH  072%=      5-min Rain = 0
KLBW 201320Z 17006KT M02/M06 A3024 RMK A01 T10151059  RH  072%=      5-min Rain = 0
KLBW 201325Z 16006KT M01/M06 A3024 RMK A01 T10141059  RH  072%=      5-min Rain = 0
KLBW 201330Z 17006KT M01/M06 A3024 RMK A01 T10141059  RH  071%=      5-min Rain = 0
KLBW 201335Z 17004KT M02/M06 A3024 RMK A01 T10151060  RH  071%=      5-min Rain = 0
KLBW 201340Z 19003KT M02/M06 A3025 RMK A01 T10181061  RH  072%=      5-min Rain = 0
KLBW 201345Z 18003KT M02/M06 A3025 RMK A01 T10211062  RH  073%=      5-min Rain = 0
KLBW 201350Z 17004KT M02/M06 A3025 RMK A01 T10211061  RH  075%=      5-min Rain = 0
KLBW 201355Z 17004KT M02/M06 A3025 RMK A01 T10211059  RH  075%=      5-min Rain = 0
KLBW 201400Z 18004KT M02/M06 A3025 RMK A01 T10211059  RH  075%=      5-min Rain = 0
KLBW 201405Z 19003KT M02/M06 A3025 RMK A01 T10211059  RH  076%=      5-min Rain = 0
KLBW 201410Z 19004KT M02/M06 A3025 RMK A01 T10211058  RH  076%=      5-min Rain = 0
KLBW 201415Z 18005KT M02/M06 A3025 RMK A01 T10191055  RH  077%=      5-min Rain = 0
KLBW 201420Z 18005KT M02/M05 A3025 RMK A01 T10161053  RH  076%=      5-min Rain = 0
KLBW 201425Z 18007KT M01/M05 A3025 RMK A01 T10121051  RH  075%=      5-min Rain = 0
KLBW 201430Z 18007KT M01/M05 A3025 RMK A01 T10081050  RH  073%=      5-min Rain = 0
KLBW 201435Z 18006KT M00/M05 A3025 RMK A01 T10041049  RH  072%=      5-min Rain = 0
KLBW 201440Z 18008KT 00/M05 A3024 RMK A01 T00031047  RH  069%=      5-min Rain = 0
KLBW 201445Z 18007KT 01/M05 A3024 RMK A01 T00091046  RH  067%=      5-min Rain = 0
KLBW 201450Z 18008KT 01/M05 A3024 RMK A01 T00131046  RH  065%=      5-min Rain = 0
KLBW 201455Z 18009KT 01/M05 A3024 RMK A01 T00131046  RH  065%=      5-min Rain = 0
KLBW 201500Z 18008KT 01/M05 A3024 RMK A01 T00131047  RH  065%=      5-min Rain = 0
KLBW 201505Z 18007KT 01/M05 A3024 RMK A01 T00141046  RH  065%=      5-min Rain = 0
KLBW 201510Z 18008KT 02/M05 A3024 RMK A01 T00161045  RH  064%=      5-min Rain = 0
KLBW 201515Z 18008KT 02/M04 A3024 RMK A01 T00191044  RH  063%=      5-min Rain = 0
KLBW 201520Z 18009KT 02/M04 A3024 RMK A01 T00211044  RH  063%=      5-min Rain = 0
KLBW 201525Z 19010KT 02/M04 A3024 RMK A01 T00241043  RH  062%=      5-min Rain = 0
KLBW 201530Z 19009KT 03/M04 A3024 RMK A01 T00281041  RH  061%=      5-min Rain = 0
KLBW 201535Z 19013G18KT 03/M04 A3024 RMK A01 T00321041  RH  059%=      5-min Rain = 0
KLBW 201540Z 18013G19KT 03/M04 A3024 RMK A01 T00341042  RH  058%=      5-min Rain = 0
KLBW 201545Z 18013KT 03/M04 A3024 RMK A01 T00341042  RH  058%=      5-min Rain = 0
KLBW 201550Z 18012G17KT 04/M04 A3024 RMK A01 T00361041  RH  057%=      5-min Rain = 0
KLBW 201555Z 18013G18KT 04/M04 A3024 RMK A01 T00361041  RH  057%=      5-min Rain = 0
KLBW 201600Z 19012KT 04/M04 A3024 RMK A01 T00361040  RH  058%=      5-min Rain = 0
KLBW 201605Z 19011G16KT 04/M04 A3024 RMK A01 T00401037  RH  057%=      5-min Rain = 0
KLBW 201610Z 19012G18KT 04/M04 A3024 RMK A01 T00441037  RH  056%=      5-min Rain = 0
KLBW 201615Z 19013KT 04/M04 A3024 RMK A01 T00441037  RH  056%=      5-min Rain = 0
KLBW 201620Z 19012G17KT 05/M04 A3023 RMK A01 T00471036  RH  055%=      5-min Rain = 0
KLBW 201625Z 19011KT 05/M03 A3023 RMK A01 T00521033  RH  054%=      5-min Rain = 0
KLBW 201630Z 19011KT 06/M03 A3023 RMK A01 T00571032  RH  053%=      5-min Rain = 0
KLBW 201635Z 19010KT 06/M03 A3023 RMK A01 T00601031  RH  052%=      5-min Rain = 0
KLBW 201640Z 20011KT 07/M03 A3023 RMK A01 T00671031  RH  050%=      5-min Rain = 0
KLBW 201645Z 20013G18KT 07/M03 A3023 RMK A01 T00671033  RH  049%=      5-min Rain = 0
KLBW 201650Z 20013KT 07/M03 A3023 RMK A01 T00681033  RH  049%=      5-min Rain = 0
KLBW 201655Z 20010G17KT 07/M03 A3023 RMK A01 T00701032  RH  048%=      5-min Rain = 0
KLBW 201700Z 21011KT 08/M03 A3023 RMK A01 T00771031  RH  047%=      5-min Rain = 0
KLBW 201705Z 20013KT 08/M03 A3023 RMK A01 T00751032  RH  047%=      5-min Rain = 0
KLBW 201710Z 20012KT 08/M03 A3023 RMK A01 T00801032  RH  045%=      5-min Rain = 0
KLBW 201715Z 20014KT 08/M03 A3023 RMK A01 T00801033  RH  045%=      5-min Rain = 0
KLBW 201720Z 21012KT 08/M03 A3022 RMK A01 T00841031  RH  044%=      5-min Rain = 0
KLBW 201725Z 20012KT 08/M03 A3022 RMK A01 T00831033  RH  044%=      5-min Rain = 0
KLBW 201730Z 20010KT 09/M03 A3022 RMK A01 T00871030  RH  044%=      5-min Rain = 0
KLBW 201735Z 20010KT 09/M03 A3022 RMK A01 T00911030  RH  043%=      5-min Rain = 0
KLBW 201740Z 21012KT 10/M03 A3022 RMK A01 T00951033  RH  041%=      5-min Rain = 0
KLBW 201745Z 21011KT 10/M03 A3022 RMK A01 T00951034  RH  041%=      5-min Rain = 0
KLBW 201750Z 20012G18KT 10/M03 A3021 RMK A01 T01011033  RH  039%=      5-min Rain = 0
KLBW 201755Z 21013KT 10/M04 A3021 RMK A01 T00981035  RH  039%=      5-min Rain = 0
KLBW 201800Z 20012G17KT 10/M03 A3021 RMK A01 T01001034  RH  039%=      5-min Rain = 0
KLBW 201805Z 21010G17KT 11/M03 A302 RMK A01 T01071032  RH  038%=      5-min Rain = 0
KLBW 201810Z 21011KT 12/M03 A302 RMK A01 T01151031  RH  036%=      5-min Rain = 0
KLBW 201815Z 20012G17KT 11/M04 A3019 RMK A01 T01111035  RH  036%=      5-min Rain = 0
KLBW 201820Z 20013KT 11/M04 A3019 RMK A01 T01081037  RH  036%=      5-min Rain = 0
KLBW 201825Z 21012KT 11/M04 A3019 RMK A01 T01111036  RH  036%=      5-min Rain = 0
KLBW 201830Z 20013KT 11/M04 A3018 RMK A01 T01111038  RH  035%=      5-min Rain = 0
KLBW 201835Z 21011KT 11/M04 A3018 RMK A01 T01131039  RH  034%=      5-min Rain = 0
KLBW 201840Z 21010KT 12/M04 A3018 RMK A01 T01191038  RH  033%=      5-min Rain = 0
KLBW 201845Z 21010KT 13/M04 A3017 RMK A01 T01261039  RH  032%=      5-min Rain = 0
KLBW 201850Z 21011KT 13/M04 A3017 RMK A01 T01251042  RH  031%=      5-min Rain = 0
KLBW 201855Z 21010G15KT 13/M05 A3016 RMK A01 T01261046  RH  030%=      5-min Rain = 0
KLBW 201900Z 21010G15KT 13/M05 A3016 RMK A01 T01281046  RH  030%=      5-min Rain = 0
KLBW 201905Z 21011KT 13/M05 A3015 RMK A01 T01321048  RH  028%=      5-min Rain = 0
KLBW 201910Z 21012G17KT 14/M05 A3015 RMK A01 T01371049  RH  027%=      5-min Rain = 0
KLBW 201915Z 22012KT 13/M05 A3015 RMK A01 T01321053  RH  027%=      5-min Rain = 0
KLBW 201920Z 22012KT 14/M05 A3014 RMK A01 T01371049  RH  027%=      5-min Rain = 0
KLBW 201925Z 22011KT 14/M05 A3014 RMK A01 T01371049  RH  027%=      5-min Rain = 0
KLBW 201930Z 22010G16KT 14/M05 A3013 RMK A01 T01421048  RH  027%=      5-min Rain = 0
KLBW 201935Z 21011KT 14/M05 A3013 RMK A01 T01441049  RH  026%=      5-min Rain = 0
KLBW 201940Z 21011G16KT 15/M05 A3013 RMK A01 T01451051  RH  025%=      5-min Rain = 0
KLBW 201945Z 22013KT 15/M05 A3012 RMK A01 T01461052  RH  025%=      5-min Rain = 0
KLBW 201950Z 21012G17KT 15/M05 A3012 RMK A01 T01481053  RH  025%=      5-min Rain = 0
KLBW 201955Z 21012KT 15/M06 A3012 RMK A01 T01511055  RH  024%=      5-min Rain = 0
KLBW 202000Z 21013G18KT 15/M06 A3011 RMK A01 T01521056  RH  023%=      5-min Rain = 0
KLBW 202005Z 21013G19KT 15/M06 A301 RMK A01 T01531057  RH  023%=      5-min Rain = 0
KLBW 202010Z 21011KT 15/M06 A301 RMK A01 T01531056  RH  023%=      5-min Rain = 0
KLBW 202015Z 20013KT 16/M06 A301 RMK A01 T01631055  RH  022%=      5-min Rain = 0
KLBW 202020Z 21011KT 17/M05 A301 RMK A01 T01671054  RH  021%=      5-min Rain = 0
KLBW 202025Z 21012G17KT 17/M06 A301 RMK A01 T01671057  RH  021%=      5-min Rain = 0
KLBW 202030Z 21012KT 17/M06 A301 RMK A01 T01691057  RH  021%=      5-min Rain = 0
KLBW 202035Z 21014G22KT 17/M06 A3009 RMK A01 T01691061  RH  020%=      5-min Rain = 0
KLBW 202040Z 21012G18KT 17/M06 A3009 RMK A01 T01661063  RH  020%=      5-min Rain = 0
KLBW 202045Z 21009KT 17/M06 A3009 RMK A01 T01731058  RH  020%=      5-min Rain = 0
KLBW 202050Z 21012G18KT 18/M07 A3009 RMK A01 T01771065  RH  019%=      5-min Rain = 0
KLBW 202055Z 21012KT 18/M06 A3009 RMK A01 T01761064  RH  019%=      5-min Rain = 0
KLBW 202100Z 20011KT 18/M06 A3009 RMK A01 T01791061  RH  019%=      5-min Rain = 0
KLBW 202105Z 21010KT 18/M06 A3008 RMK A01 T01821064  RH  018%=      5-min Rain = 0
KLBW 202110Z 20012G18KT 18/M06 A3008 RMK A01 T01811064  RH  018%=      5-min Rain = 0
KLBW 202115Z 20012KT 18/M07 A3008 RMK A01 T01771065  RH  019%=      5-min Rain = 0
KLBW 202120Z 19011KT 18/M07 A3008 RMK A01 T01751065  RH  019%=      5-min Rain = 0
KLBW 202125Z 20011G17KT 18/M06 A3008 RMK A01 T01781063  RH  019%=      5-min Rain = 0
KLBW 202130Z 19012KT 18/M06 A3007 RMK A01 T01761064  RH  019%=      5-min Rain = 0
KLBW 202135Z 20011KT 18/M06 A3007 RMK A01 T01771063  RH  019%=      5-min Rain = 0
KLBW 202140Z 19011KT 18/M06 A3007 RMK A01 T01761062  RH  019%=      5-min Rain = 0
KLBW 202145Z 20012KT 18/M06 A3007 RMK A01 T01751063  RH  019%=      5-min Rain = 0
KLBW 202150Z 20012G18KT 18/M06 A3007 RMK A01 T01751063  RH  019%=      5-min Rain = 0
KLBW 202155Z 21013G18KT 17/M07 A3007 RMK A01 T01731065  RH  019%=      5-min Rain = 0
KLBW 202200Z 20011KT 17/M07 A3007 RMK A01 T01741066  RH  019%=      5-min Rain = 0
KLBW 202205Z 21013G18KT 17/M07 A3007 RMK A01 T01731069  RH  018%=      5-min Rain = 0
KLBW 202210Z 21011KT 17/M07 A3007 RMK A01 T01731069  RH  018%=      5-min Rain = 0
KLBW 202215Z 20011G16KT 17/M07 A3007 RMK A01 T01741070  RH  018%=      5-min Rain = 0
KLBW 202220Z 20011G16KT 17/M07 A3007 RMK A01 T01721072  RH  018%=      5-min Rain = 0
KLBW 202225Z 20012KT 17/M07 A3007 RMK A01 T01741074  RH  018%=      5-min Rain = 0
KLBW 202230Z 20009KT 18/M07 A3007 RMK A01 T01761073  RH  018%=      5-min Rain = 0
KLBW 202235Z 20011G16KT 18/M08 A3007 RMK A01 T01751075  RH  017%=      5-min Rain = 0
KLBW 202240Z 20010KT 18/M08 A3007 RMK A01 T01761077  RH  017%=      5-min Rain = 0
KLBW 202245Z 21010KT 18/M08 A3006 RMK A01 T01781077  RH  017%=      5-min Rain = 0
KLBW 202250Z 20011KT 17/M08 A3006 RMK A01 T01731080  RH  017%=      5-min Rain = 0
KLBW 202255Z 20009KT 17/M08 A3007 RMK A01 T01691080  RH  017%=      5-min Rain = 0
KLBW 202300Z 21011KT 17/M08 A3006 RMK A01 T01691080  RH  017%=      5-min Rain = 0
KLBW 202305Z 21010G15KT 17/M08 A3006 RMK A01 T01671081  RH  018%=      5-min Rain = 0
KLBW 202310Z 21010KT 17/M08 A3006 RMK A01 T01671081  RH  017%=      5-min Rain = 0
KLBW 202315Z 20009KT 17/M08 A3006 RMK A01 T01671081  RH  017%=      5-min Rain = 0
KLBW 202320Z 20010KT 16/M08 A3006 RMK A01 T01621083  RH  018%=      5-min Rain = 0
KLBW 202325Z 19008KT 16/M08 A3006 RMK A01 T01591083  RH  018%=      5-min Rain = 0
KLBW 202330Z 19008KT 16/M08 A3006 RMK A01 T01561084  RH  018%=      5-min Rain = 0
KLBW 202335Z 19007KT 15/M08 A3005 RMK A01 T01541083  RH  019%=      5-min Rain = 0
KLBW 202340Z 18007KT 15/M08 A3005 RMK A01 T01501082  RH  019%=      5-min Rain = 0
KLBW 202345Z 18007KT 15/M08 A3005 RMK A01 T01481083  RH  019%=      5-min Rain = 0
KLBW 202350Z 18007KT 15/M08 A3005 RMK A01 T01451083  RH  020%=      5-min Rain = 0
KLBW 202355Z 17007KT 14/M08 A3005 RMK A01 T01431083  RH  020%=      5-min Rain = 0
KLBW 210000Z 17008KT 15/M08 A3005 RMK A01 T01451083  RH  020%=      5-min Rain = 0
KLBW 210005Z 18007KT 14/M08 A3005 RMK A01 T01421082  RH  020%=      5-min Rain = 0
KLBW 210010Z 18007KT 14/M08 A3005 RMK A01 T01391082  RH  021%=      5-min Rain = 0
KLBW 210015Z 18008KT 14/M08 A3005 RMK A01 T01361082  RH  021%=      5-min Rain = 0
KLBW 210020Z 18008KT 13/M08 A3005 RMK A01 T01331082  RH  022%=      5-min Rain = 0
KLBW 210025Z 18008KT 13/M08 A3005 RMK A01 T01301081  RH  022%=      5-min Rain = 0
KLBW 210030Z 18008KT 13/M08 A3005 RMK A01 T01301079  RH  023%=      5-min Rain = 0
KLBW 210035Z 18008KT 13/M08 A3005 RMK A01 T01291080  RH  023%=      5-min Rain = 0
KLBW 210040Z 18008KT 13/M08 A3005 RMK A01 T01291080  RH  022%=      5-min Rain = 0
KLBW 210045Z 18008KT 13/M08 A3005 RMK A01 T01271081  RH  023%=      5-min Rain = 0
KLBW 210050Z 18008KT 13/M08 A3005 RMK A01 T01261080  RH  023%=      5-min Rain = 0
KLBW 210055Z 18008KT 13/M08 A3005 RMK A01 T01251080  RH  023%=      5-min Rain = 0
KLBW 210100Z 18008KT 12/M08 A3005 RMK A01 T01221080  RH  024%=      5-min Rain = 0
KLBW 210105Z 18008KT 12/M08 A3005 RMK A01 T01191080  RH  024%=      5-min Rain = 0
KLBW 210110Z 18008KT 12/M08 A3004 RMK A01 T01181080  RH  024%=      5-min Rain = 0
KLBW 210115Z 18008KT 12/M08 A3004 RMK A01 T01171080  RH  024%=      5-min Rain = 0
KLBW 210120Z 18008KT 12/M08 A3004 RMK A01 T01171080  RH  024%=      5-min Rain = 0
KLBW 210125Z 18008KT 12/M08 A3004 RMK A01 T01161079  RH  025%=      5-min Rain = 0
KLBW 210130Z 18008KT 12/M08 A3004 RMK A01 T01181078  RH  025%=      5-min Rain = 0
KLBW 210135Z 19008KT 12/M08 A3004 RMK A01 T01181078  RH  025%=      5-min Rain = 0
KLBW 210140Z 19009KT 12/M08 A3004 RMK A01 T01181077  RH  025%=      5-min Rain = 0
KLBW 210145Z 18008KT 12/M08 A3004 RMK A01 T01171077  RH  025%=      5-min Rain = 0
KLBW 210150Z 18008KT 12/M08 A3004 RMK A01 T01161077  RH  025%=      5-min Rain = 0
KLBW 210155Z 18009KT 12/M08 A3004 RMK A01 T01151077  RH  025%=      5-min Rain = 0
KLBW 210200Z 18008KT 12/M08 A3003 RMK A01 T01161077  RH  025%=      5-min Rain = 0
KLBW 210205Z 19008KT 12/M08 A3003 RMK A01 T01151077  RH  025%=      5-min Rain = 0
KLBW 210210Z 19009KT 12/M08 A3003 RMK A01 T01171078  RH  025%=      5-min Rain = 0
KLBW 210215Z 19009KT 12/M08 A3003 RMK A01 T01191079  RH  024%=      5-min Rain = 0
KLBW 210220Z 19009KT 12/M08 A3002 RMK A01 T01191079  RH  024%=      5-min Rain = 0
KLBW 210225Z 19008G13KT 12/M08 A3002 RMK A01 T01171079  RH  025%=      5-min Rain = 0
KLBW 210230Z 19008KT 12/M08 A3003 RMK A01 T01171079  RH  025%=      5-min Rain = 0
KLBW 210235Z 19009KT 12/M08 A3002 RMK A01 T01201079  RH  024%=      5-min Rain = 0
KLBW 210240Z 19009KT 12/M08 A3002 RMK A01 T01191079  RH  024%=      5-min Rain = 0
KLBW 210245Z 19010KT 12/M08 A3002 RMK A01 T01211079  RH  024%=      5-min Rain = 0
KLBW 210250Z 19010KT 12/M08 A3002 RMK A01 T01211079  RH  024%=      5-min Rain = 0
KLBW 210255Z 19009G15KT 12/M08 A3002 RMK A01 T01181079  RH  024%=      5-min Rain = 0
KLBW 210300Z 18009G15KT 12/M08 A3002 RMK A01 T01151079  RH  025%=      5-min Rain = 0
KLBW 210305Z 18011KT 11/M08 A3002 RMK A01 T01121079  RH  026%=      5-min Rain = 0
KLBW 210310Z 19009KT 11/M08 A3002 RMK A01 T01061078  RH  027%=      5-min Rain = 0
KLBW 210315Z 19010KT 11/M08 A3001 RMK A01 T01051077  RH  027%=      5-min Rain = 0
KLBW 210320Z 18009KT 11/M08 A3001 RMK A01 T01061075  RH  027%=      5-min Rain = 0
KLBW 210325Z 18010KT 11/M07 A3001 RMK A01 T01051074  RH  028%=      5-min Rain = 0
KLBW 210330Z 18010KT 10/M07 A3001 RMK A01 T01031073  RH  028%=      5-min Rain = 0
KLBW 210335Z 18011KT 10/M07 A30 RMK A01 T01011072  RH  029%=      5-min Rain = 0
KLBW 210340Z 18010KT 10/M07 A30 RMK A01 T00981071  RH  030%=      5-min Rain = 0
KLBW 210345Z 18012KT 10/M07 A30 RMK A01 T00991066  RH  031%=      5-min Rain = 0
KLBW 210350Z 18012G17KT 10/M06 A30 RMK A01 T01001058  RH  033%=      5-min Rain = 0
KLBW 210355Z 19011KT 10/M05 A30 RMK A01 T00991052  RH  034%=      5-min Rain = 0
KLBW 210400Z 19012KT 10/M05 A30 RMK A01 T00981050  RH  035%=      5-min Rain = 0
KLBW 210405Z 19011G16KT 10/M05 A30 RMK A01 T00971047  RH  036%=      5-min Rain = 0
KLBW 210410Z 19011G17KT 10/M05 A30 RMK A01 T00951045  RH  037%=      5-min Rain = 0
KLBW 210415Z 19012KT 10/M04 A30 RMK A01 T00961043  RH  038%=      5-min Rain = 0
KLBW 210420Z 20011KT 10/M04 A30 RMK A01 T00961041  RH  038%=      5-min Rain = 0
KLBW 210425Z 20011G17KT 10/M04 A30 RMK A01 T00951039  RH  039%=      5-min Rain = 0
KLBW 210430Z 20012G19KT 10/M04 A3001 RMK A01 T00961037  RH  039%=      5-min Rain = 0
KLBW 210435Z 20011KT 10/M04 A3001 RMK A01 T00951036  RH  040%=      5-min Rain = 0
KLBW 210440Z 20010KT 09/M04 A3001 RMK A01 T00931036  RH  040%=      5-min Rain = 0
KLBW 210445Z 20011G17KT 10/M03 A3001 RMK A01 T00951034  RH  041%=      5-min Rain = 0
KLBW 210450Z 20012G17KT 10/M03 A3001 RMK A01 T00961032  RH  041%=      5-min Rain = 0
KLBW 210455Z 20012G17KT 10/M03 A3002 RMK A01 T00961032  RH  041%=      5-min Rain = 0
KLBW 210500Z 20012G17KT 10/M03 A3001 RMK A01 T00951031  RH  041%=      5-min Rain = 0
KLBW 210505Z 20012G17KT 10/M03 A3001 RMK A01 T00951031  RH  041%=      5-min Rain = 0
KLBW 210510Z 20012KT 09/M03 A3001 RMK A01 T00941030  RH  042%=      5-min Rain = 0
KLBW 210515Z 20011KT 09/M03 A3001 RMK A01 T00911030  RH  043%=      5-min Rain = 0
KLBW 210520Z 20011G17KT 09/M03 A3001 RMK A01 T00911030  RH  043%=      5-min Rain = 0
KLBW 210525Z 20013G19KT 09/M03 A30 RMK A01 T00911030  RH  043%=      5-min Rain = 0
KLBW 210530Z 20013G19KT 09/M03 A3001 RMK A01 T00901030  RH  043%=      5-min Rain = 0
KLBW 210535Z 20015G20KT 09/M03 A3001 RMK A01 T00891029  RH  043%=      5-min Rain = 0
KLBW 210540Z 20015G21KT 09/M03 A30 RMK A01 T00881029  RH  044%=      5-min Rain = 0
KLBW 210545Z 20015KT 09/M03 A30 RMK A01 T00881029  RH  044%=      5-min Rain = 0
KLBW 210550Z 20015G22KT 09/M03 A30 RMK A01 T00871029  RH  044%=      5-min Rain = 0
KLBW 210555Z 20014G20KT 09/M03 A30 RMK A01 T00861029  RH  045%=      5-min Rain = 0

Page generated in 0.0137 seconds.